createdAt,value
2018-06-24T00:00:23.988Z,69.43
2018-06-24T00:02:50.273Z,69.65
2018-06-24T00:05:16.567Z,70.00
2018-06-24T00:07:42.883Z,70.06
2018-06-24T00:10:09.171Z,70.33
2018-06-24T00:12:35.460Z,71.15
2018-06-24T00:15:01.753Z,71.13
2018-06-24T00:17:28.047Z,71.31
2018-06-24T00:19:54.339Z,71.64
2018-06-24T00:22:20.623Z,72.10
2018-06-24T00:24:46.944Z,72.47
2018-06-24T00:27:13.242Z,73.10
2018-06-24T00:29:39.526Z,73.29
2018-06-24T00:32:05.820Z,73.02
2018-06-24T00:34:32.119Z,72.87
2018-06-24T00:36:58.411Z,72.52
2018-06-24T00:39:24.701Z,72.61
2018-06-24T00:41:50.994Z,72.90
2018-06-24T00:44:17.286Z,72.61
2018-06-24T00:46:43.577Z,72.13
2018-06-24T00:49:09.900Z,71.75
2018-06-24T00:51:36.189Z,71.97
2018-06-24T00:54:02.483Z,71.78
2018-06-24T00:56:28.769Z,71.73
2018-06-24T00:58:55.059Z,72.08
2018-06-24T01:01:21.391Z,71.86
2018-06-24T01:03:47.687Z,71.75
2018-06-24T01:06:13.975Z,72.30
2018-06-24T01:08:40.269Z,71.99
2018-06-24T01:11:06.563Z,71.48
2018-06-24T01:13:32.906Z,71.64
2018-06-24T01:15:59.195Z,71.91
2018-06-24T01:18:25.495Z,72.00
2018-06-24T01:20:51.791Z,71.80
2018-06-24T01:23:18.074Z,72.17
2018-06-24T01:25:44.362Z,72.13
2018-06-24T01:28:10.659Z,72.09
2018-06-24T01:30:36.982Z,72.39
2018-06-24T01:33:03.273Z,71.88
2018-06-24T01:35:29.568Z,72.20
2018-06-24T01:37:55.881Z,72.21
2018-06-24T01:40:22.206Z,72.49
2018-06-24T01:42:48.466Z,72.65
2018-06-24T01:45:14.770Z,72.69
2018-06-24T01:47:41.079Z,72.58
2018-06-24T01:50:07.362Z,72.67
2018-06-24T01:52:33.689Z,72.33
2018-06-24T01:54:59.993Z,72.34
2018-06-24T01:57:26.280Z,72.67
2018-06-24T01:59:52.570Z,73.23
2018-06-24T02:02:18.860Z,73.06
2018-06-24T02:04:45.161Z,73.22
2018-06-24T02:07:11.449Z,73.50
2018-06-24T02:09:37.744Z,73.50
2018-06-24T02:12:04.026Z,73.28
2018-06-24T02:14:30.362Z,73.27
2018-06-24T02:16:56.653Z,74.06
2018-06-24T02:19:22.941Z,75.07
2018-06-24T02:21:49.239Z,75.55
2018-06-24T02:24:15.523Z,75.72
2018-06-24T02:26:41.827Z,75.05
2018-06-24T02:29:08.116Z,75.61
2018-06-24T02:31:34.447Z,76.27
2018-06-24T02:34:00.736Z,76.78
2018-06-24T02:36:27.028Z,77.34
2018-06-24T02:38:53.324Z,77.17
2018-06-24T02:41:19.607Z,77.28
2018-06-24T02:43:45.935Z,77.40
2018-06-24T02:46:12.219Z,77.43
2018-06-24T02:48:38.503Z,77.50
2018-06-24T02:51:04.790Z,77.68
2018-06-24T02:53:31.101Z,77.98
2018-06-24T02:55:57.375Z,78.46
2018-06-24T02:58:23.697Z,78.59
2018-06-24T03:00:50.000Z,78.58
2018-06-24T03:03:16.288Z,78.98
2018-06-24T03:05:42.570Z,79.08
2018-06-24T03:08:08.866Z,79.23
2018-06-24T03:10:35.160Z,79.22
2018-06-24T03:13:01.459Z,79.14
2018-06-24T03:15:27.776Z,79.34
2018-06-24T03:17:54.064Z,79.72
2018-06-24T03:20:20.378Z,79.65
2018-06-24T03:22:46.672Z,79.73
2018-06-24T03:25:12.960Z,79.77
2018-06-24T03:27:39.254Z,79.41
2018-06-24T03:30:05.549Z,79.35
2018-06-24T03:32:31.874Z,79.13
2018-06-24T03:34:58.162Z,78.97
2018-06-24T03:37:24.456Z,78.76
2018-06-24T03:39:50.746Z,78.64
2018-06-24T03:42:17.030Z,78.68
2018-06-24T03:44:43.323Z,78.81
2018-06-24T03:47:09.611Z,78.59
2018-06-24T03:49:35.949Z,78.53
2018-06-24T03:52:02.237Z,78.38
2018-06-24T03:54:28.518Z,78.31
2018-06-24T03:56:54.809Z,78.02
2018-06-24T03:59:21.098Z,77.83
2018-06-24T04:01:47.385Z,77.80
2018-06-24T04:04:13.685Z,77.72
2018-06-24T04:06:40.014Z,77.66
2018-06-24T04:09:06.298Z,77.17
2018-06-24T04:11:32.588Z,77.32
2018-06-24T04:13:58.878Z,77.22
2018-06-24T04:16:25.168Z,77.26
2018-06-24T04:18:51.473Z,77.61
2018-06-24T04:21:17.755Z,77.40
2018-06-24T04:23:44.075Z,76.80
2018-06-24T04:26:10.364Z,76.26
2018-06-24T04:28:36.656Z,75.95
2018-06-24T04:31:02.985Z,75.79
2018-06-24T04:33:29.276Z,75.04
2018-06-24T04:35:55.602Z,75.13
2018-06-24T04:38:21.904Z,74.74
2018-06-24T04:40:48.204Z,74.14
2018-06-24T04:43:14.495Z,74.21
2018-06-24T04:45:40.783Z,73.56
2018-06-24T04:48:07.077Z,73.65
2018-06-24T04:50:33.364Z,72.82
2018-06-24T04:52:59.684Z,72.62
2018-06-24T04:55:25.977Z,71.62
2018-06-24T04:57:52.268Z,71.16
2018-06-24T05:00:18.555Z,70.55
2018-06-24T05:02:44.844Z,70.24
2018-06-24T05:05:11.147Z,71.79
2018-06-24T05:07:37.426Z,69.55
2018-06-24T05:10:03.749Z,66.18
2018-06-24T05:12:30.044Z,65.80
2018-06-24T05:14:56.327Z,65.23
2018-06-24T05:17:22.937Z,64.43
2018-06-24T05:19:49.234Z,60.42
2018-06-24T05:22:15.559Z,57.25
2018-06-24T05:24:41.843Z,57.19
2018-06-24T05:27:08.151Z,56.05
2018-06-24T05:29:34.465Z,55.75
2018-06-24T05:32:00.756Z,56.79
2018-06-24T05:34:27.047Z,57.15
2018-06-24T05:36:53.336Z,56.78
2018-06-24T05:39:19.622Z,55.91
2018-06-24T05:41:45.912Z,53.06
2018-06-24T05:44:12.205Z,49.99
2018-06-24T05:46:38.502Z,45.77
2018-06-24T05:49:04.815Z,43.32
2018-06-24T05:51:31.126Z,42.85
2018-06-24T05:53:57.404Z,42.44
2018-06-24T05:56:23.731Z,44.68
2018-06-24T05:58:50.028Z,44.03
2018-06-24T06:01:16.311Z,45.45
2018-06-24T06:03:42.600Z,46.90
2018-06-24T06:06:08.887Z,49.90
2018-06-24T06:08:35.186Z,49.55
2018-06-24T06:11:01.477Z,44.48
2018-06-24T06:13:27.821Z,42.59
2018-06-24T06:15:54.117Z,40.84
2018-06-24T06:18:20.411Z,40.79
2018-06-24T06:20:46.710Z,39.76
2018-06-24T06:23:13.003Z,37.91
2018-06-24T06:25:39.297Z,38.73
2018-06-24T06:28:05.584Z,41.05
2018-06-24T06:30:31.874Z,41.12
2018-06-24T06:32:58.162Z,39.60
2018-06-24T06:35:24.485Z,39.49
2018-06-24T06:37:50.772Z,38.87
2018-06-24T06:40:17.060Z,38.04
2018-06-24T06:42:43.359Z,37.62
2018-06-24T06:45:09.698Z,36.83
2018-06-24T06:47:35.935Z,35.46
2018-06-24T06:50:02.225Z,36.35
2018-06-24T06:52:28.542Z,36.05
2018-06-24T06:54:54.838Z,36.20
2018-06-24T06:57:21.129Z,35.04
2018-06-24T06:59:47.419Z,36.72
2018-06-24T07:02:13.719Z,36.83
2018-06-24T07:04:40.036Z,35.89
2018-06-24T07:07:06.327Z,35.93
2018-06-24T07:09:32.627Z,36.40
2018-06-24T07:11:58.935Z,35.96
2018-06-24T07:14:25.229Z,35.71
2018-06-24T07:16:51.529Z,36.39
2018-06-24T07:19:17.828Z,35.12
2018-06-24T07:21:44.170Z,35.22
2018-06-24T07:24:10.456Z,36.22
2018-06-24T07:26:36.745Z,37.25
2018-06-24T07:29:03.036Z,35.24
2018-06-24T07:31:29.330Z,33.99
2018-06-24T07:33:55.640Z,34.15
2018-06-24T07:36:21.932Z,33.92
2018-06-24T07:38:48.255Z,33.05
2018-06-24T07:41:14.540Z,33.77
2018-06-24T07:43:40.828Z,34.01
2018-06-24T07:46:07.129Z,33.43
2018-06-24T07:48:33.580Z,35.25
2018-06-24T07:50:59.909Z,35.22
2018-06-24T07:53:26.201Z,36.52
2018-06-24T07:55:52.575Z,38.03
2018-06-24T07:58:18.883Z,37.93
2018-06-24T08:00:45.158Z,38.59
2018-06-24T08:03:11.451Z,38.97
2018-06-24T08:05:37.733Z,35.57
2018-06-24T08:08:04.062Z,35.72
2018-06-24T08:10:30.356Z,35.28
2018-06-24T08:12:56.654Z,35.00
2018-06-24T08:15:22.964Z,35.45
2018-06-24T08:17:49.250Z,35.22
2018-06-24T08:20:15.573Z,32.45
2018-06-24T08:22:41.912Z,32.38
2018-06-24T08:25:08.150Z,34.24
2018-06-24T08:27:34.440Z,36.48
2018-06-24T08:30:00.737Z,35.24
2018-06-24T08:32:27.032Z,35.11
2018-06-24T08:34:53.331Z,34.16
2018-06-24T08:37:19.662Z,34.60
2018-06-24T08:39:45.947Z,35.68
2018-06-24T08:42:12.243Z,35.57
2018-06-24T08:44:38.547Z,35.32
2018-06-24T08:47:04.842Z,33.83
2018-06-24T08:49:31.149Z,33.97
2018-06-24T08:51:57.445Z,32.94
2018-06-24T08:54:23.796Z,32.28
2018-06-24T08:56:50.059Z,32.44
2018-06-24T08:59:16.350Z,32.83
2018-06-24T09:01:42.638Z,32.66
2018-06-24T09:04:08.932Z,33.21
2018-06-24T09:06:35.252Z,33.28
2018-06-24T09:09:01.543Z,33.77
2018-06-24T09:11:27.834Z,34.76
2018-06-24T09:13:54.137Z,34.73
2018-06-24T09:16:20.422Z,37.02
2018-06-24T09:18:46.748Z,37.53
2018-06-24T09:21:13.031Z,37.59
2018-06-24T09:23:39.321Z,36.82
2018-06-24T09:26:05.615Z,36.54
2018-06-24T09:28:31.911Z,36.11
2018-06-24T09:30:58.202Z,36.63
2018-06-24T09:33:24.490Z,36.50
2018-06-24T09:35:50.808Z,36.71
2018-06-24T09:38:17.097Z,37.08
2018-06-24T09:40:43.387Z,36.31
2018-06-24T09:43:09.693Z,37.14
2018-06-24T09:45:35.978Z,37.65
2018-06-24T09:48:02.308Z,38.51
2018-06-24T09:50:28.642Z,37.69
2018-06-24T09:52:55.000Z,37.90
2018-06-24T09:55:21.247Z,38.16
2018-06-24T09:57:47.537Z,37.00
2018-06-24T10:00:13.833Z,37.89
2018-06-24T10:02:40.123Z,38.70
2018-06-24T10:05:06.427Z,38.59
2018-06-24T10:07:32.717Z,37.26
2018-06-24T10:09:59.046Z,34.65
2018-06-24T10:12:25.356Z,31.83
2018-06-24T10:14:51.645Z,31.19
2018-06-24T10:17:17.944Z,29.80
2018-06-24T10:19:44.231Z,31.09
2018-06-24T10:22:10.558Z,33.14
2018-06-24T10:24:36.866Z,33.72
2018-06-24T10:27:03.163Z,32.54
2018-06-24T10:29:29.520Z,32.73
2018-06-24T10:31:55.763Z,32.20
2018-06-24T10:34:22.059Z,31.46
2018-06-24T10:36:48.375Z,32.77
2018-06-24T10:39:14.675Z,32.26
2018-06-24T10:41:41.836Z,33.45
2018-06-24T10:44:08.166Z,34.89
2018-06-24T10:46:34.492Z,35.06
2018-06-24T10:49:00.783Z,34.98
2018-06-24T10:51:27.078Z,34.37
2018-06-24T10:53:53.372Z,34.12
2018-06-24T10:56:19.665Z,34.07
2018-06-24T10:58:45.957Z,33.28
2018-06-24T11:01:12.239Z,32.17
2018-06-24T11:03:38.568Z,31.07
2018-06-24T11:06:04.854Z,32.02
2018-06-24T11:08:31.157Z,32.79
2018-06-24T11:10:57.443Z,32.00
2018-06-24T11:13:23.765Z,32.66
2018-06-24T11:15:50.056Z,33.11
2018-06-24T11:18:16.343Z,31.42
2018-06-24T11:20:42.630Z,31.04
2018-06-24T11:23:08.965Z,31.33
2018-06-24T11:25:35.257Z,30.56
2018-06-24T11:28:01.592Z,30.86
2018-06-24T11:30:27.870Z,30.58
2018-06-24T11:32:54.172Z,29.57
2018-06-24T11:35:20.459Z,30.50
2018-06-24T11:37:46.749Z,31.49
2018-06-24T11:40:13.038Z,31.91
2018-06-24T11:42:39.338Z,32.19
2018-06-24T11:45:05.635Z,31.17
2018-06-24T11:47:31.962Z,31.41
2018-06-24T11:49:58.251Z,31.49
2018-06-24T11:52:24.550Z,30.62
2018-06-24T11:54:50.843Z,30.39
2018-06-24T11:57:17.139Z,30.56
2018-06-24T11:59:43.547Z,30.86
2018-06-24T12:02:09.845Z,30.88
2018-06-24T12:04:36.130Z,31.42
2018-06-24T12:07:02.431Z,31.69
2018-06-24T12:09:28.721Z,31.91
2018-06-24T12:11:55.115Z,30.97
2018-06-24T12:14:21.411Z,31.11
2018-06-24T12:16:47.747Z,31.16
2018-06-24T12:19:14.043Z,31.46
2018-06-24T12:21:40.353Z,30.90
2018-06-24T12:24:06.665Z,30.19
2018-06-24T12:26:33.236Z,31.10
2018-06-24T12:28:59.561Z,32.67
2018-06-24T12:31:25.846Z,32.75
2018-06-24T12:33:52.136Z,32.09
2018-06-24T12:36:18.423Z,31.72
2018-06-24T12:38:44.720Z,31.66
2018-06-24T12:41:11.028Z,31.69
2018-06-24T12:43:37.311Z,30.69
2018-06-24T12:46:03.643Z,32.17
2018-06-24T12:48:29.927Z,32.76
2018-06-24T12:50:56.221Z,32.02
2018-06-24T12:53:22.521Z,32.14
2018-06-24T12:55:48.806Z,30.64
2018-06-24T12:58:15.132Z,31.40
2018-06-24T13:00:41.758Z,29.72
2018-06-24T13:03:07.748Z,29.52
2018-06-24T13:05:34.336Z,30.76
2018-06-24T13:08:00.559Z,31.20
2018-06-24T13:10:26.854Z,32.38
2018-06-24T13:12:53.158Z,31.67
2018-06-24T13:15:19.451Z,30.98
2018-06-24T13:17:45.776Z,29.97
2018-06-24T13:20:12.075Z,29.96
2018-06-24T13:22:38.371Z,28.90
2018-06-24T13:25:04.706Z,28.36
2018-06-24T13:27:30.997Z,27.39
2018-06-24T13:29:57.287Z,28.52
2018-06-24T13:32:23.579Z,30.41
2018-06-24T13:34:49.907Z,31.12
2018-06-24T13:37:16.190Z,31.64
2018-06-24T13:39:42.481Z,31.77
2018-06-24T13:42:08.805Z,32.21
2018-06-24T13:44:35.125Z,32.40
2018-06-24T13:47:01.414Z,32.91
2018-06-24T13:49:27.698Z,32.97
2018-06-24T13:51:54.016Z,33.16
2018-06-24T13:54:20.303Z,33.06
2018-06-24T13:56:46.601Z,32.97
2018-06-24T13:59:12.895Z,33.38
2018-06-24T14:01:39.188Z,32.67
2018-06-24T14:04:05.564Z,32.62
2018-06-24T14:06:31.788Z,33.17
2018-06-24T14:08:58.154Z,33.25
2018-06-24T14:11:24.450Z,33.06
2018-06-24T14:13:50.734Z,33.27
2018-06-24T14:16:17.031Z,33.07
2018-06-24T14:18:43.313Z,33.37
2018-06-24T14:21:09.643Z,33.16
2018-06-24T14:23:36.010Z,33.01
2018-06-24T14:26:02.231Z,32.85
2018-06-24T14:28:28.526Z,33.31
2018-06-24T14:30:54.819Z,33.59
2018-06-24T14:33:21.113Z,33.29
2018-06-24T14:35:47.421Z,33.06
2018-06-24T14:38:13.767Z,33.20
2018-06-24T14:40:40.063Z,33.54
2018-06-24T14:43:06.358Z,33.05
2018-06-24T14:45:32.650Z,33.76
2018-06-24T14:47:58.953Z,33.79
2018-06-24T14:50:25.250Z,33.08
2018-06-24T14:52:51.544Z,33.57
2018-06-24T14:55:17.880Z,33.88
2018-06-24T14:57:44.163Z,34.30
2018-06-24T15:00:10.518Z,33.93
2018-06-24T15:02:36.812Z,33.58
2018-06-24T15:05:03.109Z,33.90
2018-06-24T15:07:29.408Z,33.73
2018-06-24T15:09:55.697Z,34.04
2018-06-24T15:12:22.004Z,34.03
2018-06-24T15:14:48.346Z,34.39
2018-06-24T15:17:14.676Z,34.03
2018-06-24T15:19:40.988Z,32.97
2018-06-24T15:22:07.291Z,33.37
2018-06-24T15:24:33.584Z,34.03
2018-06-24T15:26:59.882Z,34.47
2018-06-24T15:29:26.217Z,34.60
2018-06-24T15:31:52.506Z,34.02
2018-06-24T15:34:18.803Z,34.27
2018-06-24T15:36:45.097Z,34.53
2018-06-24T15:39:11.384Z,33.98
2018-06-24T15:41:37.679Z,34.34
2018-06-24T15:44:04.100Z,34.42
2018-06-24T15:46:30.383Z,34.33
2018-06-24T15:48:56.667Z,35.02
2018-06-24T15:51:23.016Z,34.95
2018-06-24T15:53:49.293Z,34.51
2018-06-24T15:56:15.587Z,34.40
2018-06-24T15:58:41.886Z,36.24
2018-06-24T16:01:08.176Z,38.21
2018-06-24T16:03:34.472Z,39.19
2018-06-24T16:06:00.810Z,39.13
2018-06-24T16:08:27.420Z,39.83
2018-06-24T16:10:53.709Z,39.59
2018-06-24T16:13:20.003Z,39.78
2018-06-24T16:15:46.303Z,39.51
2018-06-24T16:18:12.627Z,40.31
2018-06-24T16:20:39.041Z,40.35
2018-06-24T16:23:05.218Z,40.72
2018-06-24T16:25:31.522Z,40.49
2018-06-24T16:27:57.819Z,41.41
2018-06-24T16:30:24.123Z,41.05
2018-06-24T16:32:50.416Z,41.00
2018-06-24T16:35:16.736Z,41.31
2018-06-24T16:37:43.026Z,41.55
2018-06-24T16:40:09.317Z,41.82
2018-06-24T16:42:35.615Z,41.81
2018-06-24T16:45:01.913Z,42.56
2018-06-24T16:47:28.207Z,43.22
2018-06-24T16:49:54.507Z,43.51
2018-06-24T16:52:20.800Z,44.06
2018-06-24T16:54:47.095Z,44.01
2018-06-24T16:57:13.417Z,44.28
2018-06-24T16:59:39.714Z,44.77
2018-06-24T17:02:06.018Z,44.74
2018-06-24T17:04:32.345Z,45.27
2018-06-24T17:06:58.619Z,45.42
2018-06-24T17:09:24.923Z,45.35
2018-06-24T17:11:51.239Z,45.47
2018-06-24T17:14:17.529Z,45.35
2018-06-24T17:16:43.824Z,45.47
2018-06-24T17:19:10.110Z,45.79
2018-06-24T17:21:36.409Z,45.81
2018-06-24T17:24:02.705Z,45.70
2018-06-24T17:26:29.029Z,46.41
2018-06-24T17:28:55.358Z,45.94
2018-06-24T17:31:21.649Z,46.03
2018-06-24T17:33:47.938Z,46.21
2018-06-24T17:36:14.248Z,46.38
2018-06-24T17:38:40.564Z,46.51
2018-06-24T17:41:06.853Z,46.57
2018-06-24T17:43:33.147Z,46.70
2018-06-24T17:45:59.461Z,46.54
2018-06-24T17:48:25.750Z,46.84
2018-06-24T17:50:52.055Z,46.60
2018-06-24T17:53:18.356Z,47.02
2018-06-24T17:55:44.644Z,47.02
2018-06-24T17:58:10.943Z,46.94
2018-06-24T18:00:37.292Z,47.12
2018-06-24T18:03:03.587Z,47.18
2018-06-24T18:05:29.887Z,46.88
2018-06-24T18:07:56.177Z,47.32
2018-06-24T18:10:22.459Z,47.35
2018-06-24T18:12:48.744Z,48.03
2018-06-24T18:15:15.095Z,47.82
2018-06-24T18:17:41.384Z,47.99
2018-06-24T18:20:07.640Z,48.07
2018-06-24T18:22:33.979Z,48.24
2018-06-24T18:25:00.235Z,48.17
2018-06-24T18:27:26.525Z,48.28
2018-06-24T18:29:52.823Z,48.60
2018-06-24T18:32:19.468Z,48.56
2018-06-24T18:34:45.718Z,48.34
2018-06-24T18:37:12.024Z,49.02
2018-06-24T18:39:38.339Z,48.75
2018-06-24T18:42:04.611Z,48.83
2018-06-24T18:44:30.907Z,49.00
2018-06-24T18:46:57.208Z,49.41
2018-06-24T18:49:23.629Z,49.94
2018-06-24T18:51:49.842Z,50.05
2018-06-24T18:54:16.129Z,50.02
2018-06-24T18:56:42.469Z,50.31
2018-06-24T18:59:08.700Z,50.18
2018-06-24T19:01:34.997Z,49.98
2018-06-24T19:04:01.286Z,50.41
2018-06-24T19:06:27.630Z,51.32
2018-06-24T19:08:53.925Z,51.01
2018-06-24T19:11:20.297Z,50.76
2018-06-24T19:13:46.585Z,51.07
2018-06-24T19:16:12.936Z,50.91
2018-06-24T19:18:39.338Z,50.29
2018-06-24T19:21:05.631Z,50.37
2018-06-24T19:23:31.924Z,50.66
2018-06-24T19:25:58.221Z,50.86
2018-06-24T19:28:24.626Z,50.64
2018-06-24T19:30:50.880Z,50.46
2018-06-24T19:33:17.176Z,50.57
2018-06-24T19:35:43.464Z,50.96
2018-06-24T19:38:09.763Z,51.59
2018-06-24T19:40:36.052Z,51.70
2018-06-24T19:43:02.335Z,52.41
2018-06-24T19:45:28.669Z,52.51
2018-06-24T19:47:54.960Z,52.97
2018-06-24T19:50:21.291Z,53.42
2018-06-24T19:52:47.827Z,53.71
2018-06-24T19:55:14.201Z,53.34
2018-06-24T19:57:40.497Z,52.99
2018-06-24T20:00:07.037Z,53.42
2018-06-24T20:02:33.521Z,53.15
2018-06-24T20:04:59.806Z,54.40
2018-06-24T20:07:26.100Z,55.63
2018-06-24T20:09:52.388Z,55.38
2018-06-24T20:12:18.683Z,55.15
2018-06-24T20:14:44.970Z,55.00
2018-06-24T20:17:11.305Z,55.66
2018-06-24T20:19:37.592Z,56.01
2018-06-24T20:22:03.892Z,56.58
2018-06-24T20:24:30.195Z,56.72
2018-06-24T20:26:56.481Z,57.21
2018-06-24T20:29:22.770Z,56.97
2018-06-24T20:31:49.063Z,57.12
2018-06-24T20:34:15.361Z,56.73
2018-06-24T20:36:41.679Z,56.88
2018-06-24T20:39:07.962Z,56.64
2018-06-24T20:41:34.289Z,57.29
2018-06-24T20:44:00.588Z,56.74
2018-06-24T20:46:27.767Z,56.44
2018-06-24T20:48:54.070Z,56.55
2018-06-24T20:51:20.354Z,56.54
2018-06-24T20:53:46.667Z,56.47
2018-06-24T20:56:12.966Z,56.64
2018-06-24T20:58:39.293Z,57.42
2018-06-24T21:01:05.556Z,58.55
2018-06-24T21:03:31.874Z,58.78
2018-06-24T21:05:58.686Z,59.12
2018-06-24T21:11:16.236Z,59.62
2018-06-24T21:13:45.483Z,59.95
2018-06-24T21:16:11.912Z,59.87
2018-06-24T21:18:38.213Z,60.06
2018-06-24T21:21:04.557Z,60.12
2018-06-24T21:23:30.882Z,60.07
2018-06-24T21:25:57.168Z,59.87
2018-06-24T21:28:23.498Z,59.77
2018-06-24T21:30:49.805Z,59.36
2018-06-24T21:33:16.130Z,59.13
2018-06-24T21:35:42.428Z,59.42
2018-06-24T21:38:08.718Z,60.54
2018-06-24T21:40:35.020Z,61.42
2018-06-24T21:43:01.312Z,61.16
2018-06-24T21:45:27.638Z,61.30
2018-06-24T21:47:53.935Z,60.75
2018-06-24T21:50:20.241Z,61.64
2018-06-24T21:52:46.536Z,62.94
2018-06-24T21:55:12.850Z,63.20
2018-06-24T21:57:39.184Z,63.30
2018-06-24T22:00:05.482Z,62.93
2018-06-24T22:02:31.772Z,62.59
2018-06-24T22:04:58.104Z,62.76
2018-06-24T22:07:24.402Z,62.61
2018-06-24T22:09:50.704Z,62.91
2018-06-24T22:12:16.997Z,63.35
2018-06-24T22:14:43.326Z,64.09
2018-06-24T22:17:09.608Z,64.37
2018-06-24T22:19:35.895Z,65.47
2018-06-24T22:22:02.212Z,66.15
2018-06-24T22:24:28.490Z,66.11
2018-06-24T22:26:54.821Z,66.44
2018-06-24T22:29:21.101Z,66.80
2018-06-24T22:31:47.389Z,66.29
2018-06-24T22:34:13.685Z,65.80
2018-06-24T22:36:39.978Z,65.05
2018-06-24T22:39:06.311Z,63.60
2018-06-24T22:41:32.608Z,64.27
2018-06-24T22:43:58.903Z,63.94
2018-06-24T22:46:25.195Z,63.88
2018-06-24T22:48:51.488Z,64.04
2018-06-24T22:51:17.783Z,64.21
2018-06-24T22:53:44.078Z,64.36
2018-06-24T22:56:10.416Z,64.60
2018-06-24T22:58:36.704Z,64.45
2018-06-24T23:01:03.069Z,64.51
2018-06-24T23:03:29.299Z,64.49
2018-06-24T23:05:55.588Z,64.29
2018-06-24T23:08:21.884Z,64.35
2018-06-24T23:10:48.172Z,64.51
2018-06-24T23:13:14.488Z,65.10
2018-06-24T23:15:40.779Z,65.38
2018-06-24T23:18:07.068Z,65.11
2018-06-24T23:20:33.368Z,65.12
2018-06-24T23:22:59.656Z,65.48
2018-06-24T23:25:25.948Z,65.94
2018-06-24T23:27:52.236Z,66.08
2018-06-24T23:30:18.528Z,65.80
2018-06-24T23:32:44.824Z,65.74
2018-06-24T23:35:11.117Z,65.95
2018-06-24T23:37:37.408Z,66.04
2018-06-24T23:40:03.696Z,66.21
2018-06-24T23:42:30.023Z,66.31
2018-06-24T23:44:56.323Z,66.51
2018-06-24T23:47:22.618Z,66.76
2018-06-24T23:49:48.913Z,67.01
2018-06-24T23:52:15.204Z,67.21
2018-06-24T23:54:41.542Z,67.05
2018-06-24T23:57:07.843Z,67.17
2018-06-24T23:59:34.134Z,67.42
